Flight Track Log - Related Links

Times and Time Zones

All times are in EDT time to prevent confusion due to time zone crossing. See the GJS3655 flight status page for this flight to view local times or setup timezone preferences in your user account.

Time Position Orientation Groundspeed Altitude Reporting Facility
EDT Latitude Longitude Course Direction KTS MPH feet Rate Location/Type
Tue 09:00:58 AM 45.4500 -73.7167 270° West 10 12 100  Level Montreal Center
Tue 09:07:58 AM 45.4500 -73.7667 270° West 160 184 1,000 413 Climbing Montreal Center
Tue 09:08:58 AM 45.4500 -73.8500 270° West 190 219 3,400 1,900 Climbing Montreal Center
Tue 09:09:58 AM 45.4833 -73.9167 306° West 260 299 4,800 2,000 Climbing Montreal Center
Tue 09:10:58 AM 45.5333 -74.0000 311° West 270 311 7,400 2,650 Climbing Montreal Center
Tue 09:11:58 AM 45.5833 -74.1000 306° West 280 322 10,100 2,750 Climbing Montreal Center
Tue 09:12:58 AM 45.6333 -74.2000 306° West 280 322 12,900 2,250 Climbing Montreal Center
Tue 09:13:58 AM 45.6500 -74.3167 282° West 310 357 14,600 1,450 Climbing Montreal Center
Tue 09:14:58 AM 45.6667 -74.4333 282° West 330 380 15,800 1,200 Climbing Montreal Center
Tue 09:15:58 AM 45.7000 -74.6000 286° West 370 426 17,000 1,100 Climbing Montreal Center
Tue 09:16:58 AM 45.7167 -74.7500 279° West 400 460 18,000 1,250 Climbing Montreal Center
Tue 09:17:58 AM 45.7500 -74.9167 286° West 410 472 19,500 1,500 Climbing Montreal Center
Tue 09:18:58 AM 45.7667 -75.0833 278° West 420 483 21,000 1,500 Climbing Montreal Center
Tue 09:19:58 AM 45.8000 -75.2500 286° West 420 483 22,500 1,550 Climbing Montreal Center
Tue 09:20:58 AM 45.8333 -75.4167 286° West 420 483 24,100 1,500 Climbing Montreal Center
Tue 09:21:58 AM 45.8667 -75.5667 288° West 420 483 25,500 1,500 Climbing Montreal Center
Tue 09:22:58 AM 45.8833 -75.7333 278° West 420 483 27,100 1,500 Climbing Montreal Center
Tue 09:23:58 AM 45.9000 -75.9000 278° West 420 483 28,500 1,500 Climbing Montreal Center
Tue 09:24:58 AM 45.9333 -76.0667 286° West 410 472 30,100 1,300 Climbing Montreal Center
Tue 09:25:58 AM 45.9500 -76.2333 278° West 410 472 31,100 1,000 Climbing Montreal Center
Tue 09:26:58 AM 45.9667 -76.3833 279° West 410 472 32,100 1,000 Climbing Montreal Center
Tue 09:27:58 AM 45.9833 -76.5500 278° West 420 483 33,100 950 Climbing Montreal Center
Tue 09:28:58 AM 46.0000 -76.7167 278° West 420 483 34,000 684 Climbing Montreal Center
Tue 09:29:17 AM 46.0000 -76.7500 270° West 420 483 34,000  Level Toronto Center
Tue 09:30:17 AM 46.0000 -76.9167 270° West 430 495 34,000  Level Toronto Center
Tue 09:31:17 AM 46.0167 -77.0833 278° West 440 506 34,000  Level Toronto Center
Tue 09:32:17 AM 46.0167 -77.2500 270° West 440 506 34,000  Level Toronto Center
Tue 09:32:58 AM 46.0500 -77.4167 286° West 440 506 34,000  Level Montreal Center
Tue 09:33:58 AM 46.0667 -77.5833 278° West 440 506 34,000  Level Montreal Center
Tue 09:34:58 AM 46.0667 -77.7500 270° West 450 518 34,000  Level Montreal Center
Tue 09:35:58 AM 46.1000 -77.9500 284° West 450 518 34,000  Level Montreal Center
Tue 09:36:17 AM 46.0833 -77.9667 215° Southwest 450 518 34,000  Level Toronto Center
Tue 09:37:17 AM 46.1000 -78.1667 277° West 450 518 34,000  Level Toronto Center
Tue 09:38:17 AM 46.1167 -78.3333 278° West 450 518 34,000  Level Toronto Center
Tue 09:39:17 AM 46.1333 -78.5333 277° West 450 518 34,000  Level Toronto Center
Tue 09:40:17 AM 46.1500 -78.7000 278° West 450 518 34,000  Level Toronto Center
Tue 09:41:17 AM 46.1667 -78.8833 278° West 450 518 34,000  Level Toronto Center
Tue 09:42:17 AM 46.1667 -79.0500 270° West 450 518 34,000  Level Toronto Center
Tue 09:43:17 AM 46.1833 -79.2500 277° West 450 518 34,000  Level Toronto Center
Tue 09:44:17 AM 46.2000 -79.4167 278° West 440 506 34,000  Level Toronto Center
Tue 09:45:17 AM 46.2000 -79.5833 270° West 450 518 34,000  Level Toronto Center
Tue 09:46:17 AM 46.2167 -79.7833 277° West 440 506 34,000  Level Toronto Center
Tue 09:47:17 AM 46.2333 -79.9500 278° West 440 506 34,000  Level Toronto Center
Tue 09:48:17 AM 46.2333 -80.1167 270° West 440 506 34,000  Level Toronto Center
Tue 09:49:17 AM 46.2500 -80.2833 278° West 440 506 34,000  Level Toronto Center
Tue 09:50:17 AM 46.2500 -80.4500 270° West 440 506 34,000  Level Toronto Center
Tue 09:51:17 AM 46.2667 -80.6500 277° West 430 495 34,000  Level Toronto Center
Tue 09:52:17 AM 46.2833 -80.8167 278° West 430 495 34,000  Level Toronto Center
Tue 09:53:17 AM 46.2667 -80.9833 262° West 420 483 34,000  Level Toronto Center
Tue 09:54:17 AM 46.2833 -81.1500 278° West 420 483 34,000  Level Toronto Center
Tue 09:55:17 AM 46.3000 -81.3167 278° West 430 495 34,000  Level Toronto Center
Tue 09:56:17 AM 46.3000 -81.4833 270° West 430 495 34,000  Level Toronto Center
Tue 09:57:17 AM 46.3167 -81.6667 278° West 430 495 34,000  Level Toronto Center
Tue 09:58:17 AM 46.3333 -81.8333 278° West 430 495 34,000  Level Toronto Center
Tue 09:59:17 AM 46.3000 -82.0000 254° West 420 483 34,000  Level Toronto Center
Tue 10:00:17 AM 46.2667 -82.1667 254° West 430 495 34,000  Level Toronto Center
Tue 10:01:17 AM 46.2333 -82.3333 254° West 430 495 34,000  Level Toronto Center
Tue 10:02:17 AM 46.2000 -82.5000 254° West 430 495 34,000  Level Toronto Center
Tue 10:03:17 AM 46.1500 -82.6667 247° West 430 495 34,000  Level Toronto Center
Tue 10:04:17 AM 46.1000 -82.8333 247° West 440 506 34,000  Level Toronto Center
Tue 10:05:17 AM 46.0667 -83.0000 254° West 450 518 34,000  Level Toronto Center
Tue 10:06:17 AM 46.0167 -83.1667 247° West 450 518 34,000  Level Toronto Center
Tue 10:07:17 AM 45.9667 -83.3333 247° West 440 506 34,000  Level Toronto Center
Tue 10:08:17 AM 45.9333 -83.5000 254° West 430 495 34,000  Level Toronto Center
Tue 10:09:17 AM 45.9000 -83.6333 250° West 430 495 34,000  Level Toronto Center
Tue 10:10:17 AM 45.8333 -83.8167 242° Southwest 430 495 34,000  Level Toronto Center
Tue 10:11:22 AM 45.8147 -83.9719 260° West 429 494 34,000  Level Minneapolis Center
Tue 10:12:24 AM 45.7517 -84.1156 238° Southwest 432 497 34,000  Level Minneapolis Center
Tue 10:13:25 AM 45.6489 -84.2083 212° Southwest 434 499 34,000  Level Minneapolis Center
Tue 10:14:26 AM 45.5331 -84.2711 201° Southwest 439 505 34,000  Level Minneapolis Center
Tue 10:15:28 AM 45.4142 -84.3314 200° South 448 516 34,000  Level Minneapolis Center
Tue 10:16:29 AM 45.2986 -84.3958 201° Southwest 447 514 34,000  Level Minneapolis Center
Tue 10:17:30 AM 45.1597 -84.4683 200° South 444 511 34,000  Level Minneapolis Center
Tue 10:18:32 AM 45.0475 -84.5275 200° South 436 502 34,000  Level Minneapolis Center
Tue 10:19:33 AM 44.9353 -84.5856 200° South 430 495 34,000 -439 Level Minneapolis Center
Tue 10:20:35 AM 44.8244 -84.6422 200° South 425 489 33,100 -976 Descending Minneapolis Center
Tue 10:21:36 AM 44.7089 -84.7044 201° Southwest 437 503 32,000 -541 Descending Minneapolis Center
Tue 10:22:37 AM 44.5897 -84.7633 199° South 448 516 32,000  Level Minneapolis Center
Tue 10:23:39 AM 44.4758 -84.8231 201° Southwest 440 506 32,000  Level Minneapolis Center
Tue 10:24:40 AM 44.3806 -84.9253 217° Southwest 433 498 32,000  Level Minneapolis Center
Tue 10:25:42 AM 44.2864 -85.0347 220° Southwest 436 502 32,000  Level Minneapolis Center
Tue 10:26:43 AM 44.1933 -85.1467 221° Southwest 439 505 32,000  Level Minneapolis Center
Tue 10:27:45 AM 44.0797 -85.2794 220° Southwest 442 509 32,000  Level Minneapolis Center
Tue 10:28:46 AM 43.9978 -85.3736 220° Southwest 442 509 32,000  Level Minneapolis Center
Tue 10:29:48 AM 43.9033 -85.4842 220° Southwest 444 511 32,000  Level Minneapolis Center
Tue 10:30:49 AM 43.7897 -85.6161 220° Southwest 445 512 32,000  Level Minneapolis Center
Tue 10:31:51 AM 43.6953 -85.7250 220° Southwest 444 511 32,000  Level Minneapolis Center
Tue 10:32:52 AM 43.6017 -85.8325 220° Southwest 442 509 32,000  Level Minneapolis Center
Tue 10:33:13 AM 43.5650 -85.8758 221° Southwest 441 507 32,000 -1,301 Level Chicago Center
Tue 10:34:15 AM 43.4700 -85.9819 219° Southwest 443 510 30,200 -1,839 Descending Chicago Center
Tue 10:35:17 AM 43.3750 -86.0900 220° Southwest 446 513 28,200 -1,887 Descending Chicago Center
Tue 10:36:19 AM 43.2836 -86.1961 220° Southwest 438 504 26,300 -1,887 Descending Chicago Center
Tue 10:37:21 AM 43.1894 -86.3000 219° Southwest 439 505 24,300 -2,129 Descending Chicago Center
Tue 10:38:23 AM 43.0856 -86.4164 219° Southwest 413 475 21,900 -2,129 Descending Chicago Center
Tue 10:39:25 AM 43.0039 -86.5069 219° Southwest 387 445 19,900 -1,984 Descending Chicago Center
Tue 10:40:27 AM 42.9231 -86.5967 219° Southwest 380 437 17,800 -1,984 Descending Chicago Center
Tue 10:41:29 AM 42.8419 -86.6869 219° Southwest 381 438 15,800 -1,935 Descending Chicago Center
Tue 10:42:31 AM 42.7639 -86.7728 219° Southwest 366 421 13,800 -2,146 Descending Chicago Center
Tue 10:43:32 AM 42.6708 -86.8761 219° Southwest 362 417 11,400 -1,854 Descending Chicago Center
Tue 10:44:34 AM 42.5961 -86.9583 219° Southwest 351 404 10,000 -774 Descending Chicago Center
Tue 10:45:36 AM 42.5419 -87.0394 228° Southwest 291 335 9,800 -484 Descending Chicago Center
Tue 10:46:38 AM 42.5019 -87.1150 234° Southwest 253 291 9,000 -387 Descending Chicago Center
Tue 10:47:40 AM 42.4628 -87.1942 236° Southwest 254 292 9,000  Level Chicago Center
Tue 10:48:42 AM 42.4219 -87.2733 235° Southwest 258 297 9,000  Level Chicago Center
Tue 10:49:44 AM 42.3869 -87.3561 240° Southwest 255 293 9,000 -98 Level Chicago Center
Tue 10:50:45 AM 42.3597 -87.4569 250° West 256 295 8,800 -488 Descending Chicago Center
Tue 10:51:47 AM 42.3225 -87.5350 237° Southwest 248 285 8,000 -387 Descending Chicago Center
Tue 10:52:49 AM 42.2733 -87.5900 220° Southwest 230 265 8,000 -726 Level Chicago Center
Tue 10:53:51 AM 42.2219 -87.6472 220° Southwest 203 234 6,500 -1,306 Descending Chicago Center
Tue 10:54:53 AM 42.1789 -87.6961 220° Southwest 202 232 5,300 -968 Descending Chicago Center
Tue 10:55:55 AM 42.1467 -87.7303 218° Southwest 161 185 4,500 -829 Descending Chicago Center
Tue 10:56:56 AM 42.1139 -87.7669 220° Southwest 154 177 3,600 -878 Descending Chicago Center
Tue 10:57:17 AM 42.1000 -87.7833 221° Southwest 155 178 3,300 -815 Descending Chicago TRACON
Tue 10:58:17 AM 42.0667 -87.8167 217° Southwest 142 163 2,500 -700 Descending Chicago TRACON
Tue 10:59:17 AM 42.0500 -87.8500 236° Southwest 118 136 1,900 -600 Descending Chicago TRACON

Login

Don't have an account? Register now (free) for customized features, flight alerts, and more!